createdAt,value
2022-11-01T00:00:32.440Z,9.75
2022-11-01T00:02:59.360Z,10.70
2022-11-01T00:05:26.403Z,8.65
2022-11-01T00:07:53.743Z,8.35
2022-11-01T00:10:20.847Z,7.53
2022-11-01T00:12:47.843Z,7.10
2022-11-01T00:15:14.798Z,6.68
2022-11-01T00:17:41.766Z,6.13
2022-11-01T00:20:09.263Z,5.50
2022-11-01T00:22:36.242Z,5.17
2022-11-01T00:25:03.348Z,5.43
2022-11-01T00:27:30.282Z,5.10
2022-11-01T00:29:57.323Z,5.18
2022-11-01T00:32:24.763Z,4.70
2022-11-01T00:34:51.760Z,5.13
2022-11-01T00:37:18.943Z,4.43
2022-11-01T00:39:45.880Z,5.15
2022-11-01T00:42:12.881Z,5.57
2022-11-01T00:44:39.770Z,4.28
2022-11-01T00:47:06.757Z,4.27
2022-11-01T00:49:33.962Z,5.18
2022-11-01T00:52:00.947Z,4.80
2022-11-01T00:54:27.909Z,4.65
2022-11-01T00:56:54.985Z,5.35
2022-11-01T00:59:21.904Z,5.70
2022-11-01T01:01:49.122Z,6.70
2022-11-01T01:04:16.112Z,7.55
2022-11-01T01:06:43.229Z,6.70
2022-11-01T01:09:10.981Z,9.75
2022-11-01T01:11:37.890Z,5.80
2022-11-01T01:14:05.093Z,9.02
2022-11-01T01:16:32.196Z,7.70
2022-11-01T01:18:59.268Z,7.00
2022-11-01T01:21:26.205Z,7.47
2022-11-01T01:23:53.099Z,6.70
2022-11-01T01:26:20.184Z,6.47
2022-11-01T01:28:47.206Z,5.82
2022-11-01T01:31:14.285Z,7.28
2022-11-01T01:33:41.280Z,6.75
2022-11-01T01:36:08.565Z,5.43
2022-11-01T01:38:35.596Z,6.70
2022-11-01T01:41:02.825Z,6.20
2022-11-01T01:43:41.697Z,7.40
2022-11-01T01:46:08.612Z,7.38
2022-11-01T01:48:35.666Z,7.70
2022-11-01T01:51:06.733Z,7.60
2022-11-01T01:53:38.641Z,6.70
2022-11-01T01:56:12.368Z,7.13
2022-11-01T01:59:09.800Z,7.65
2022-11-01T02:01:40.412Z,6.27
2022-11-01T02:04:20.263Z,6.20
2022-11-01T02:06:48.337Z,5.47
2022-11-01T02:09:16.485Z,5.78
2022-11-01T02:11:43.364Z,4.80
2022-11-01T02:14:10.482Z,5.03
2022-11-01T02:17:05.575Z,4.90
2022-11-01T02:20:04.825Z,5.18
2022-11-01T02:23:07.803Z,4.80
2022-11-01T02:26:02.220Z,5.15
2022-11-01T02:28:53.916Z,4.97
2022-11-01T02:31:27.028Z,5.40
2022-11-01T02:34:01.623Z,6.63
2022-11-01T02:36:44.625Z,4.95
2022-11-01T02:39:27.507Z,6.50
2022-11-01T02:42:20.372Z,5.63
2022-11-01T02:45:16.447Z,6.18
2022-11-01T02:47:43.478Z,6.15
2022-11-01T02:50:11.943Z,5.90
2022-11-01T02:52:40.802Z,5.68
2022-11-01T02:55:22.997Z,5.57
2022-11-01T02:57:50.107Z,4.45
2022-11-01T03:00:21.027Z,4.68
2022-11-01T03:02:52.297Z,5.10
2022-11-01T03:05:47.162Z,5.45
2022-11-01T03:08:19.185Z,5.10
2022-11-01T03:11:10.588Z,5.32
2022-11-01T03:13:56.125Z,4.88
2022-11-01T03:16:45.000Z,5.78
2022-11-01T03:19:43.963Z,5.40
2022-11-01T03:22:15.560Z,5.97
2022-11-01T03:25:00.787Z,5.70
2022-11-01T03:27:29.922Z,9.93
2022-11-01T03:30:01.765Z,7.80
2022-11-01T03:32:34.960Z,7.55
2022-11-01T03:35:05.158Z,6.90
2022-11-01T03:37:33.960Z,7.10
2022-11-01T03:40:04.725Z,6.97
2022-11-01T03:42:32.927Z,8.75
2022-11-01T03:45:06.865Z,9.07
2022-11-01T03:47:34.936Z,8.20
2022-11-01T03:50:26.108Z,8.15
2022-11-01T03:52:53.481Z,6.38
2022-11-01T03:55:21.708Z,5.45
2022-11-01T03:57:49.632Z,4.70
2022-11-01T04:00:19.703Z,5.10
2022-11-01T04:02:46.867Z,5.63
2022-11-01T04:05:13.913Z,6.43
2022-11-01T04:07:41.011Z,6.53
2022-11-01T04:10:08.468Z,7.35
2022-11-01T04:12:35.735Z,5.40
2022-11-01T04:15:02.799Z,6.55
2022-11-01T04:17:29.709Z,7.38
2022-11-01T04:19:56.783Z,7.28
2022-11-01T04:22:24.714Z,6.63
2022-11-01T04:24:51.765Z,6.60
2022-11-01T04:27:18.811Z,8.45
2022-11-01T04:29:45.998Z,7.45
2022-11-01T04:32:13.027Z,7.72
2022-11-01T04:34:40.046Z,7.40
2022-11-01T04:37:06.923Z,6.70
2022-11-01T04:39:33.960Z,6.65
2022-11-01T04:42:01.030Z,8.13
2022-11-01T04:44:28.057Z,9.32
2022-11-01T04:46:55.082Z,7.68
2022-11-01T04:49:21.926Z,6.40
2022-11-01T04:51:48.827Z,5.82
2022-11-01T04:54:15.748Z,5.85
2022-11-01T04:56:42.706Z,8.38
2022-11-01T04:59:09.626Z,7.70
2022-11-01T05:01:36.599Z,8.30
2022-11-01T05:04:03.936Z,9.07
2022-11-01T05:06:31.049Z,9.07
2022-11-01T05:08:57.949Z,9.15
2022-11-01T05:11:24.881Z,9.00
2022-11-01T05:13:52.369Z,9.00
2022-11-01T05:16:20.775Z,8.77
2022-11-01T05:18:48.736Z,8.48
2022-11-01T05:21:16.105Z,9.50
2022-11-01T05:23:43.039Z,9.88
2022-11-01T05:26:10.720Z,8.73
2022-11-01T05:28:37.708Z,9.35
2022-11-01T05:31:04.697Z,12.07
2022-11-01T05:33:31.846Z,8.43
2022-11-01T05:36:01.490Z,8.02
2022-11-01T05:38:28.454Z,7.33
2022-11-01T05:40:55.344Z,7.20
2022-11-01T05:43:22.321Z,6.40
2022-11-01T05:45:49.563Z,6.45
2022-11-01T05:48:16.567Z,6.88
2022-11-01T05:50:44.482Z,6.60
2022-11-01T05:53:11.458Z,6.50
2022-11-01T05:55:38.834Z,7.93
2022-11-01T05:58:06.460Z,7.60
2022-11-01T06:00:34.617Z,8.07
2022-11-01T06:03:02.346Z,6.47
2022-11-01T06:05:31.081Z,7.43
2022-11-01T06:07:58.599Z,9.27
2022-11-01T06:10:25.660Z,7.70
2022-11-01T06:12:52.707Z,8.07
2022-11-01T06:15:20.183Z,8.53
2022-11-01T06:17:47.489Z,7.82
2022-11-01T06:20:14.843Z,7.72
2022-11-01T06:22:41.880Z,7.25
2022-11-01T06:25:09.606Z,7.80
2022-11-01T06:27:37.068Z,7.87
2022-11-01T06:30:04.609Z,7.82
2022-11-01T06:32:31.724Z,8.35
2022-11-01T06:34:58.847Z,7.00
2022-11-01T06:37:26.094Z,6.90
2022-11-01T06:39:53.113Z,6.53
2022-11-01T06:42:21.988Z,8.30
2022-11-01T06:44:49.173Z,8.52
2022-11-01T06:47:16.615Z,9.75
2022-11-01T06:49:43.542Z,8.57
2022-11-01T06:52:11.647Z,8.23
2022-11-01T06:54:38.777Z,7.60
2022-11-01T06:57:05.961Z,8.40
2022-11-01T06:59:33.062Z,7.30
2022-11-01T07:02:00.152Z,8.38
2022-11-01T07:04:27.258Z,8.27
2022-11-01T07:06:54.387Z,7.95
2022-11-01T07:09:21.508Z,9.30
2022-11-01T07:11:48.902Z,8.77
2022-11-01T07:14:15.983Z,8.30
2022-11-01T07:16:43.068Z,7.90
2022-11-01T07:19:10.143Z,7.65
2022-11-01T07:21:37.656Z,8.88
2022-11-01T07:24:05.095Z,7.35
2022-11-01T07:26:32.183Z,8.43
2022-11-01T07:28:59.229Z,8.83
2022-11-01T07:31:26.427Z,8.82
2022-11-01T07:33:54.258Z,8.40
2022-11-01T07:36:21.482Z,7.93
2022-11-01T07:38:48.543Z,8.38
2022-11-01T07:41:15.601Z,8.37
2022-11-01T07:43:42.502Z,9.40
2022-11-01T07:46:09.490Z,16.83
2022-11-01T07:48:36.440Z,12.35
2022-11-01T07:51:04.085Z,9.75
2022-11-01T07:53:31.166Z,8.40
2022-11-01T07:55:59.655Z,9.18
2022-11-01T07:58:26.762Z,8.18
2022-11-01T08:00:53.988Z,9.77
2022-11-01T08:03:25.068Z,9.13
2022-11-01T08:05:53.497Z,16.20
2022-11-01T08:08:21.097Z,21.75
2022-11-01T08:10:48.747Z,18.80
2022-11-01T08:13:25.334Z,16.27
2022-11-01T08:15:54.228Z,13.38
2022-11-01T08:18:23.377Z,10.13
2022-11-01T08:20:51.814Z,9.48
2022-11-01T08:23:19.640Z,10.82
2022-11-01T08:25:47.156Z,10.10
2022-11-01T08:28:17.603Z,8.82
2022-11-01T08:30:47.028Z,9.40
2022-11-01T08:33:14.095Z,9.43
2022-11-01T08:35:45.826Z,9.57
2022-11-01T08:38:16.082Z,9.48
2022-11-01T08:40:43.350Z,10.27
2022-11-01T08:43:10.348Z,7.87
2022-11-01T08:45:37.542Z,8.00
2022-11-01T08:48:05.624Z,7.43
2022-11-01T08:50:38.748Z,7.88
2022-11-01T08:53:13.211Z,7.90
2022-11-01T08:55:40.842Z,7.73
2022-11-01T08:58:08.819Z,7.55
2022-11-01T09:00:38.130Z,6.50
2022-11-01T09:03:05.723Z,6.60
2022-11-01T09:05:32.897Z,6.53
2022-11-01T09:08:02.535Z,6.50
2022-11-01T09:10:30.733Z,6.85
2022-11-01T09:13:00.745Z,6.28
2022-11-01T09:15:28.762Z,5.88
2022-11-01T09:17:55.881Z,6.25
2022-11-01T09:20:22.888Z,6.13
2022-11-01T09:22:53.842Z,6.60
2022-11-01T09:25:21.180Z,6.60
2022-11-01T09:27:51.784Z,16.80
2022-11-01T09:30:19.336Z,11.77
2022-11-01T09:32:47.221Z,6.73
2022-11-01T09:35:15.817Z,7.55
2022-11-01T09:37:42.921Z,6.40
2022-11-01T09:40:11.730Z,7.70
2022-11-01T09:42:41.739Z,10.15
2022-11-01T09:45:16.105Z,6.93
2022-11-01T09:47:44.506Z,6.72
2022-11-01T09:50:35.567Z,6.55
2022-11-01T09:53:15.144Z,5.78
2022-11-01T09:56:12.828Z,6.53
2022-11-01T09:58:48.669Z,5.63
2022-11-01T10:01:49.752Z,6.38
2022-11-01T10:04:55.624Z,7.18
2022-11-01T10:07:50.189Z,5.57
2022-11-01T10:10:36.770Z,5.95
2022-11-01T10:13:22.481Z,6.23
2022-11-01T10:16:01.422Z,6.93
2022-11-01T10:18:47.649Z,5.90
2022-11-01T10:21:18.399Z,6.32
2022-11-01T10:23:46.266Z,5.00
2022-11-01T10:26:18.597Z,5.73
2022-11-01T10:28:59.662Z,5.53
2022-11-01T10:31:29.120Z,5.63
2022-11-01T10:34:02.278Z,5.93
2022-11-01T10:36:40.692Z,5.22
2022-11-01T10:39:53.884Z,6.10
2022-11-01T10:42:23.063Z,4.82
2022-11-01T10:44:54.043Z,4.40
2022-11-01T10:47:24.162Z,4.78
2022-11-01T10:50:10.258Z,4.72
2022-11-01T10:53:09.320Z,5.20
2022-11-01T10:56:05.813Z,4.97
2022-11-01T10:58:47.885Z,4.88
2022-11-01T11:01:22.168Z,5.35
2022-11-01T11:03:50.986Z,4.95
2022-11-01T11:08:50.461Z,4.70
2022-11-01T11:11:20.839Z,4.47
2022-11-01T11:13:51.748Z,3.55
2022-11-01T11:16:54.052Z,4.03
2022-11-01T11:19:35.923Z,4.00
2022-11-01T11:22:08.068Z,3.85
2022-11-01T11:24:38.359Z,3.88
2022-11-01T11:27:18.722Z,5.30
2022-11-01T11:29:54.922Z,4.57
2022-11-01T11:32:28.884Z,4.97
2022-11-01T11:34:59.944Z,4.10
2022-11-01T11:37:30.204Z,4.07
2022-11-01T11:40:20.523Z,4.18
2022-11-01T11:42:49.765Z,6.35
2022-11-01T11:45:21.136Z,4.30
2022-11-01T11:47:48.260Z,3.58
2022-11-01T11:50:25.925Z,3.90
2022-11-01T11:53:19.882Z,4.10
2022-11-01T11:55:55.688Z,4.32
2022-11-01T11:58:34.416Z,4.40
2022-11-01T12:01:10.506Z,3.40
2022-11-01T12:04:07.057Z,3.92
2022-11-01T12:06:41.520Z,4.35
2022-11-01T12:09:42.935Z,3.97
2022-11-01T12:12:31.528Z,3.60
2022-11-01T12:15:00.153Z,5.32
2022-11-01T12:17:31.042Z,3.95
2022-11-01T12:20:15.536Z,3.90
2022-11-01T12:22:55.730Z,3.80
2022-11-01T12:25:24.838Z,3.50
2022-11-01T12:27:56.308Z,3.97
2022-11-01T12:30:25.349Z,4.03
2022-11-01T12:33:07.298Z,3.47
2022-11-01T12:35:44.845Z,3.75
2022-11-01T12:38:49.127Z,3.50
2022-11-01T12:41:45.290Z,3.33
2022-11-01T12:44:33.128Z,3.15
2022-11-01T12:47:06.029Z,2.85
2022-11-01T12:49:37.098Z,3.67
2022-11-01T12:54:47.905Z,3.33
2022-11-01T13:02:53.770Z,3.70
2022-11-01T13:06:01.672Z,3.17
2022-11-01T13:08:47.051Z,3.13
2022-11-01T13:11:46.484Z,3.25
2022-11-01T13:14:36.880Z,3.25
2022-11-01T13:17:24.205Z,3.20
2022-11-01T13:20:09.772Z,3.33
2022-11-01T13:22:53.084Z,3.45
2022-11-01T13:26:00.847Z,3.25
2022-11-01T13:28:57.302Z,3.55
2022-11-01T13:31:42.902Z,3.70
2022-11-01T13:34:28.485Z,4.07
2022-11-01T13:37:01.947Z,4.50
2022-11-01T13:39:47.357Z,4.80
2022-11-01T13:42:17.258Z,5.20
2022-11-01T13:45:01.007Z,6.22
2022-11-01T13:47:41.038Z,6.63
2022-11-01T13:50:26.018Z,7.38
2022-11-01T13:53:26.560Z,8.25
2022-11-01T13:55:59.212Z,11.07
2022-11-01T13:58:26.248Z,11.43
2022-11-01T14:00:54.928Z,12.80
2022-11-01T14:03:27.900Z,12.07
2022-11-01T14:06:09.820Z,10.88
2022-11-01T14:08:41.365Z,10.20
2022-11-01T14:11:12.844Z,7.45
2022-11-01T14:13:44.282Z,7.57
2022-11-01T14:16:17.099Z,8.18
2022-11-01T14:19:02.255Z,9.85
2022-11-01T14:21:41.939Z,7.53
2022-11-01T14:24:21.664Z,10.15
2022-11-01T14:27:39.966Z,18.93
2022-11-01T14:30:36.865Z,21.77
2022-11-01T14:33:04.601Z,10.10
2022-11-01T14:35:36.202Z,9.27
2022-11-01T14:38:08.010Z,20.13
2022-11-01T14:40:47.732Z,37.37
2022-11-01T14:43:19.836Z,13.23
2022-11-01T14:45:52.929Z,13.60
2022-11-01T14:48:28.468Z,9.48
2022-11-01T14:51:02.572Z,9.07
2022-11-01T14:53:33.729Z,11.63
2022-11-01T14:56:19.022Z,11.70
2022-11-01T14:58:46.811Z,11.13
2022-11-01T15:01:17.153Z,8.48
2022-11-01T15:03:58.243Z,10.27
2022-11-01T15:06:28.925Z,8.03
2022-11-01T15:09:00.944Z,11.73
2022-11-01T15:11:30.908Z,16.10
2022-11-01T15:14:01.381Z,11.65
2022-11-01T15:16:28.928Z,14.18
2022-11-01T15:19:06.440Z,45.27
2022-11-01T15:21:34.139Z,34.92
2022-11-01T15:24:01.807Z,26.52
2022-11-01T15:26:32.719Z,10.20
2022-11-01T15:29:02.973Z,9.40
2022-11-01T15:31:31.069Z,9.10
2022-11-01T15:34:00.928Z,8.93
2022-11-01T15:36:33.561Z,8.05
2022-11-01T15:39:03.267Z,8.45
2022-11-01T15:41:36.491Z,7.32
2022-11-01T15:44:05.707Z,7.40
2022-11-01T15:46:43.488Z,9.13
2022-11-01T15:49:17.729Z,9.65
2022-11-01T15:51:58.867Z,8.55
2022-11-01T15:54:47.666Z,7.07
2022-11-01T15:57:23.340Z,7.03
2022-11-01T16:00:03.944Z,6.43
2022-11-01T16:02:41.090Z,6.80
2022-11-01T16:05:11.657Z,7.32
2022-11-01T16:07:39.960Z,5.22
2022-11-01T16:10:08.433Z,4.77
2022-11-01T16:12:38.989Z,6.00
2022-11-01T16:15:19.226Z,5.07
2022-11-01T16:17:46.401Z,4.30
2022-11-01T16:20:27.163Z,6.35
2022-11-01T16:22:54.823Z,7.47
2022-11-01T16:25:33.460Z,10.75
2022-11-01T16:28:10.706Z,6.38
2022-11-01T16:30:46.917Z,8.63
2022-11-01T16:33:35.095Z,16.92
2022-11-01T16:36:18.263Z,14.30
2022-11-01T16:38:46.731Z,12.73
2022-11-01T16:41:22.229Z,12.25
2022-11-01T16:43:53.922Z,8.73
2022-11-01T16:46:22.918Z,7.50
2022-11-01T16:48:52.582Z,6.93
2022-11-01T16:51:20.731Z,11.77
2022-11-01T16:53:48.002Z,9.13
2022-11-01T16:56:35.686Z,8.30
2022-11-01T16:59:24.731Z,7.85
2022-11-01T17:01:52.976Z,9.30
2022-11-01T17:04:20.012Z,8.07
2022-11-01T17:06:47.025Z,8.00
2022-11-01T17:09:16.867Z,7.72
2022-11-01T17:11:50.562Z,7.95
2022-11-01T17:14:19.476Z,7.70
2022-11-01T17:16:47.678Z,7.93
2022-11-01T17:19:27.141Z,7.68
2022-11-01T17:21:55.140Z,7.40
2022-11-01T17:24:24.648Z,7.75
2022-11-01T17:26:54.047Z,7.07
2022-11-01T17:29:21.196Z,6.00
2022-11-01T17:31:48.239Z,7.28
2022-11-01T17:34:15.205Z,7.25
2022-11-01T17:36:47.329Z,6.70
2022-11-01T17:39:14.819Z,6.17
2022-11-01T17:41:41.785Z,6.63
2022-11-01T17:44:12.085Z,7.15
2022-11-01T17:46:39.364Z,7.13
2022-11-01T17:49:06.453Z,7.70
2022-11-01T17:51:33.737Z,7.53
2022-11-01T17:54:12.434Z,6.38
2022-11-01T17:56:39.425Z,9.35
2022-11-01T17:59:06.723Z,7.13
2022-11-01T18:01:34.027Z,8.93
2022-11-01T18:04:01.496Z,8.30
2022-11-01T18:06:35.442Z,8.65
2022-11-01T18:09:02.490Z,9.32
2022-11-01T18:12:09.588Z,8.38
2022-11-01T18:14:39.312Z,7.13
2022-11-01T18:17:24.099Z,7.47
2022-11-01T18:20:12.501Z,7.63
2022-11-01T18:23:00.886Z,7.93
2022-11-01T18:25:46.784Z,7.95
2022-11-01T18:28:17.467Z,7.10
2022-11-01T18:31:01.363Z,6.07
2022-11-01T18:34:10.465Z,6.57
2022-11-01T18:36:53.483Z,6.50
2022-11-01T18:39:42.479Z,5.43
2022-11-01T18:42:10.746Z,5.32
2022-11-01T18:44:38.347Z,4.80
2022-11-01T18:47:13.097Z,5.20
2022-11-01T18:49:40.369Z,5.38
2022-11-01T18:52:16.481Z,5.95
2022-11-01T18:54:55.175Z,6.45
2022-11-01T18:57:24.224Z,5.80
2022-11-01T18:59:53.514Z,4.93
2022-11-01T19:02:27.407Z,5.78
2022-11-01T19:05:15.679Z,6.20
2022-11-01T19:08:10.063Z,6.00
2022-11-01T19:10:36.642Z,6.73
2022-11-01T19:13:12.925Z,9.10
2022-11-01T19:15:54.402Z,7.22
2022-11-01T19:18:23.648Z,7.30
2022-11-01T19:20:54.707Z,7.88
2022-11-01T19:23:42.820Z,10.47
2022-11-01T19:26:24.764Z,9.60
2022-11-01T19:28:52.783Z,10.60
2022-11-01T19:31:37.987Z,8.48
2022-11-01T19:34:20.655Z,8.90
2022-11-01T19:36:51.839Z,10.97
2022-11-01T19:39:33.047Z,11.05
2022-11-01T19:42:15.481Z,12.45
2022-11-01T19:44:42.860Z,12.13
2022-11-01T19:47:34.863Z,11.95
2022-11-01T19:50:02.687Z,11.47
2022-11-01T19:52:40.107Z,13.05
2022-11-01T19:55:37.089Z,12.63
2022-11-01T19:58:39.363Z,9.63
2022-11-01T20:04:29.532Z,7.00
2022-11-01T20:06:58.001Z,12.32
2022-11-01T20:09:33.105Z,12.32
2022-11-01T20:14:48.043Z,6.30
2022-11-01T20:17:25.509Z,10.70
2022-11-01T20:19:59.858Z,8.95
2022-11-01T20:22:37.984Z,5.70
2022-11-01T20:25:05.744Z,5.70
2022-11-01T20:27:32.880Z,6.00
2022-11-01T20:30:13.216Z,5.27
2022-11-01T20:32:43.369Z,5.45
2022-11-01T20:35:11.065Z,6.07
2022-11-01T20:37:38.117Z,5.75
2022-11-01T20:40:06.324Z,5.95
2022-11-01T20:42:33.376Z,6.77
2022-11-01T20:45:00.336Z,6.97
2022-11-01T20:50:15.121Z,7.88
2022-11-01T20:52:43.070Z,8.75
2022-11-01T20:55:11.642Z,8.20
2022-11-01T20:57:39.199Z,8.20
2022-11-01T21:00:07.964Z,7.97
2022-11-01T21:02:35.001Z,7.72
2022-11-01T21:05:14.493Z,8.60
2022-11-01T21:07:46.782Z,8.90
2022-11-01T21:10:33.004Z,7.30
2022-11-01T21:13:01.944Z,7.72
2022-11-01T21:15:39.547Z,7.75
2022-11-01T21:18:12.105Z,9.85
2022-11-01T21:20:50.749Z,9.90
2022-11-01T21:23:26.643Z,8.88
2022-11-01T21:26:01.289Z,9.57
2022-11-01T21:28:38.713Z,10.00
2022-11-01T21:31:14.886Z,9.07
2022-11-01T21:33:54.305Z,8.37
2022-11-01T21:36:21.227Z,9.05
2022-11-01T21:39:10.135Z,9.15
2022-11-01T21:41:50.326Z,8.05
2022-11-01T21:44:56.228Z,8.75
2022-11-01T21:47:24.242Z,8.53
2022-11-01T21:49:52.066Z,9.02
2022-11-01T21:52:19.809Z,8.52
2022-11-01T21:54:47.787Z,8.43
2022-11-01T21:57:15.849Z,9.27
2022-11-01T21:59:43.662Z,10.10
2022-11-01T22:02:12.853Z,9.25
2022-11-01T22:04:40.014Z,7.53
2022-11-01T22:07:08.463Z,7.53
2022-11-01T22:09:35.849Z,6.18
2022-11-01T22:12:03.413Z,6.50
2022-11-01T22:14:30.703Z,6.97
2022-11-01T22:16:57.654Z,6.20
2022-11-01T22:19:24.560Z,5.40
2022-11-01T22:21:51.519Z,6.30
2022-11-01T22:24:18.698Z,5.87
2022-11-01T22:26:45.608Z,5.47
2022-11-01T22:29:12.527Z,6.43
2022-11-01T22:31:39.422Z,5.95
2022-11-01T22:34:06.384Z,7.28
2022-11-01T22:36:36.095Z,6.73
2022-11-01T22:39:16.727Z,6.10
2022-11-01T22:41:43.895Z,7.28
2022-11-01T22:44:16.786Z,7.82
2022-11-01T22:46:46.739Z,8.02
2022-11-01T22:49:19.344Z,7.87
2022-11-01T22:52:32.782Z,7.90
2022-11-01T22:55:11.540Z,7.32
2022-11-01T22:57:47.182Z,7.45
2022-11-01T23:00:30.586Z,7.93
2022-11-01T23:03:11.208Z,7.27
2022-11-01T23:05:38.408Z,6.50
2022-11-01T23:08:21.823Z,7.68
2022-11-01T23:10:51.099Z,7.03
2022-11-01T23:13:31.252Z,6.65
2022-11-01T23:16:03.865Z,7.37
2022-11-01T23:18:33.412Z,6.50
2022-11-01T23:21:05.267Z,7.72
2022-11-01T23:23:35.459Z,6.57
2022-11-01T23:26:03.131Z,6.78
2022-11-01T23:28:31.013Z,6.37
2022-11-01T23:30:57.982Z,6.55
2022-11-01T23:33:32.783Z,6.55
2022-11-01T23:36:01.000Z,6.60
2022-11-01T23:38:47.650Z,6.25
2022-11-01T23:41:22.427Z,5.90
2022-11-01T23:43:50.698Z,6.32
2022-11-01T23:46:18.900Z,5.78
2022-11-01T23:48:46.609Z,6.65
2022-11-01T23:51:19.341Z,6.53
2022-11-01T23:53:48.375Z,7.17
2022-11-01T23:56:19.040Z,6.90
2022-11-01T23:58:52.740Z,6.70
